x

Seal Rocks - Between Montague And Hinchinbrook Islands, Ak (46061) Wave Buoy

7:50pm - Thu 29th Jan 2015 All times are AKST. -9 hours from GMT.

  • Sig Wave height 4.9ft
  • Swell Direction
  • Peak Period 10s
  • Average Period 6s
  • Wind
    22mph, 27mph gusts
  • Sea Temp 42°f
  • Air Temp 37°f
  • Sea Pressure 1019.5mb
  • Seal Rocks - Between Montague And Hinchinbrook Islands, Ak
  • Seal Rocks - Between Montague And Hinchinbrook Islands, Ak

More Historic Weather Station data

Upgrade to MSW Pro to gain access to the past 30 days of data for over 8000 Wavebouys and Weather Stations around the globe.

Join Pro

Comparision Forecast

View Surf forecast
   
Thu 01/29 7:50pm 5ft 10s 6s 22 27 mph 1019.5mb 42f 37f
6:50pm 5ft 9s 6s 18 22 mph 1019mb 41f 37f
5:50pm 5ft 10s 6s 18 20 mph 1018.6mb 41f 36f
4:50pm 5ft 10s 6s 18 22 mph 1017.6mb 41f 37f
3:50pm 5ft 10s 6s 16 20 mph 1016.9mb 41f 38f
2:50pm 5ft 10s 6s 11 18 mph 1016.7mb 41f 38f
1:50pm 5ft 10s 6s 11 13 mph 1016.3mb 42f 38f
12:50pm 5ft 11s  -  18 22 mph 1015.8mb 42f 38f
11:50am 5.5ft 9s 6s 11 16 mph 1015.5mb 41f 38f
10:50am 5ft 10s 6s 4 7 mph 1015.1mb 41f 37f
8:50am 5ft 9s 7s 4 7 mph 1014mb 41f 37f
7:50am 5ft 9s 7s 7 11 mph 1013.6mb 40f 36f
6:50am 5.5ft 9s 7s 7 9 mph 1013.1mb 42f 36f
5:50am 5ft 9s 7s 9 13 mph 1012.7mb 41f 36f
4:50am 5.5ft 11s 7s 9 11 mph 1012.6mb 40f 36f
3:50am 6ft 10s 7s 9 13 mph 1012.4mb 41f 36f
2:50am 6ft 10s 7s 11 13 mph 1012.1mb 41f 36f
1:50am 5.5ft 10s 7s 13 16 mph 1011.7mb 41f 36f
12:50am 5ft 11s 7s 13 18 mph 1011.4mb 41f 36f
Wed 01/28 11:50pm 5.5ft 11s 7s 18 20 mph 1011mb 41f 35f
10:50pm 6.5ft 10s 7s 20 22 mph 1010.5mb 41f 35f
9:50pm 6ft 11s 7s 20 25 mph 1010.2mb 41f 34f
8:50pm 6.5ft 10s 7s 20 22 mph 1010.2mb 41f 34f
7:50pm 8ft 10s 8s 20 27 mph 1010.1mb 42f 34f
6:50pm 8.5ft 11s 8s 18 25 mph 1010.4mb 41f 35f
5:50pm 7ft 9s 7s 20 25 mph 1010.6mb 41f 37f
4:50pm 6ft 8s 6s 20 22 mph 1010.7mb 42f 37f
3:50pm 5.5ft 8s 6s 20 25 mph 1011.4mb 42f 37f
2:50pm 5ft 8s 6s 22 27 mph 1011.6mb 42f 37f
1:50pm 4.5ft 9s 6s 18 22 mph 1012.4mb 41f 38f
12:50pm 5ft 8s 6s 20 22 mph 1012.9mb 41f 37f
11:50am 4.5ft 9s 6s 13 16 mph 1013.6mb 41f 37f
10:50am 4ft 9s 6s 13 16 mph 1013.9mb 42f 37f
9:50am 3.5ft 8s 5s 18 20 mph 1014mb 41f 38f
8:50am 4ft 6s 5s 13 16 mph 1014.7mb 42f 36f
7:50am 3ft 9s 5s 13 16 mph 1015.1mb 42f 36f
6:50am 3.5ft 5s 5s 16 18 mph 1015.3mb 42f 37f
5:50am 3ft 9s 5s 16 18 mph 1015.7mb 42f 35f
4:50am 3.5ft 9s 5s 18 22 mph 1016mb 42f 34f
3:50am 3.5ft 8s 5s 13 18 mph 1016.5mb 43f 36f
2:50am 3.5ft 5s 5s 16 20 mph 1016.6mb 42f 36f
1:50am 3.5ft 10s 5s 13 16 mph 1016.9mb 42f 36f
12:50am 3.5ft 10s 5s 11 13 mph 1017.1mb 41f 34f
Tue 01/27 11:50pm 3ft 9s 5s 9 11 mph 1017mb 41f 34f
10:50pm 3ft 10s 6s 9 13 mph 1016.5mb 42f 33f
9:50pm 3ft 10s 6s 9 11 mph 1016.2mb 42f 33f
8:50pm 2.5ft 9s 6s 7 9 mph 1015.8mb 42f 33f
7:50pm 3ft 10s 7s 7 9 mph 1015.4mb 42f 33f
6:50pm 3ft 10s 7s 7 9 mph 1014.9mb 42f 33f
5:50pm 3ft 10s 6s 7 11 mph 1014.6mb 42f 33f
4:50pm 3ft 9s 6s 9 13 mph 1014.3mb 42f 33f
3:50pm 2.5ft 9s 6s 9 11 mph 1014.1mb 42f 33f
2:50pm 3ft 10s 7s 11 13 mph 1014mb 42f 33f
1:50pm 3ft 10s 7s 11 13 mph 1014.1mb 41f 33f
12:50pm 3.5ft 10s 7s 9 13 mph 1014.1mb 41f 33f
11:50am 2.5ft 10s 6s 9 11 mph 1013.9mb 41f 34f
10:50am 3.5ft 10s 7s 9 11 mph 1013.8mb 41f 34f
9:50am 3.5ft 10s 7s 9 11 mph 1013.2mb 41f 33f
8:50am 3.5ft 10s 6s 9 13 mph 1012.8mb 41f 33f
7:50am 3.5ft 10s 6s 9 13 mph 1012.4mb 41f 33f
6:50am 3.5ft 10s 7s 9 13 mph 1012.1mb 42f 33f
5:50am 4ft 11s 7s 11 16 mph 1012.2mb 43f 33f
4:50am 4.5ft 10s 7s 11 13 mph 1012.2mb 43f 33f
3:50am 4ft 10s 7s 11 13 mph 1012.4mb 42f 33f
2:50am 3.5ft 10s 7s 9 13 mph 1012.7mb 43f 33f
1:50am 3.5ft 10s 7s 11 13 mph 1012.7mb 42f 33f
12:50am 3.5ft 10s 7s 4 9 mph 1012.7mb 42f 33f
Mon 01/26 11:50pm 4ft 10s 7s 4 7 mph 1012.7mb 42f 33f
10:50pm 3.5ft 11s 7s 7 9 mph 1012.5mb 42f 33f
9:50pm 3.5ft 10s 7s 7 11 mph 1012.7mb 42f 32f
8:50pm 3.5ft 10s 6s 7 11 mph 1012.5mb 42f 33f
7:50pm 3.5ft 10s 6s 7 9 mph 1012.6mb 42f 32f
6:50pm 4ft 10s 7s 4 7 mph 1012.8mb 43f 31f
5:50pm 4ft 11s 6s 7 9 mph 1012.7mb 43f 30f
4:50pm 4ft 11s 6s 7 11 mph 1012.7mb 43f 30f
3:50pm 4ft 10s 6s 11 13 mph 1012.8mb 42f 30f
2:50pm 4ft 10s 6s 9 11 mph 1013.2mb 42f 30f
1:50pm 4.5ft 10s 6s 11 13 mph 1013.4mb 42f 30f
12:50pm 4ft 9s 6s 7 11 mph 1014mb 42f 29f
11:50am 4ft 10s 7s 4 7 mph 1014.4mb 42f 29f
10:50am 4ft 11s 7s 4 9 mph 1014.1mb 42f 32f
9:50am 3.5ft 11s 7s 9 11 mph 1013.6mb 42f 31f
8:50am 3.5ft 11s 8s 9 11 mph 1013.3mb 42f 31f
7:50am 3.5ft 10s 7s 11 13 mph 1013mb 42f 30f
6:50am 4ft 10s 8s 11 16 mph 1012.9mb 42f 30f
5:50am 4ft 10s 7s 11 16 mph 1013mb 42f 30f